Time;durP1;ratioP1;P1;durP2;ratioP2;P2;SDS_P1;SDS_P2;PMS_P1;PMS_P2;Temp;Humidity;BMP_temperature;BMP_pressure;BME280_temperature;BME280_humidity;BME280_pressure;Samples;Min_cycle;Max_cycle;Signal;HPM_P1;HPM_P2
2023/08/19 00:00:51;;;;;;;5.30;4.32;;;;;;;24.47;64.44;95388.81;6271613;22;20180;-82
2023/08/19 00:03:19;;;;;;;4.57;3.85;;;;;;;24.45;64.12;95368.81;6271935;22;20180;-82
2023/08/19 00:05:45;;;;;;;4.18;3.88;;;;;;;24.36;64.10;95396.75;6272487;22;20703;-81
2023/08/19 00:08:12;;;;;;;4.80;4.40;;;;;;;24.34;64.27;95395.44;6272099;22;20176;-81
2023/08/19 00:10:39;;;;;;;4.90;4.40;;;;;;;24.33;64.48;95394.66;6272145;22;20698;-81
2023/08/19 00:13:06;;;;;;;4.97;4.40;;;;;;;24.35;64.16;95391.78;6272625;22;20196;-82
2023/08/19 00:15:33;;;;;;;4.85;4.38;;;;;;;24.27;64.49;95394.94;6271947;22;20203;-81
2023/08/19 00:18:00;;;;;;;5.75;4.30;;;;;;;24.31;64.39;95380.97;6272616;22;20176;-81
2023/08/19 00:20:28;;;;;;;4.35;3.95;;;;;;;24.23;64.90;95397.31;6273100;22;20254;-82
2023/08/19 00:22:55;;;;;;;6.03;4.75;;;;;;;24.24;64.44;95387.59;6273202;22;20211;-82
2023/08/19 00:25:22;;;;;;;6.18;5.30;;;;;;;24.24;64.34;95393.66;6272206;22;20200;-82
2023/08/19 00:27:48;;;;;;;5.22;4.60;;;;;;;24.22;64.29;95376.53;6272739;22;20172;-82
2023/08/19 00:30:15;;;;;;;6.57;5.40;;;;;;;24.17;63.83;95364.16;6272777;22;20179;-81
2023/08/19 00:32:41;;;;;;;5.65;4.95;;;;;;;24.15;64.48;95387.31;6272070;22;20529;-82
2023/08/19 00:35:08;;;;;;;5.30;4.30;;;;;;;24.07;64.53;95398.38;6271419;22;20200;-81
2023/08/19 00:37:37;;;;;;;8.80;7.85;;;;;;;24.00;65.05;95397.88;6272370;22;20179;-82
2023/08/19 00:40:05;;;;;;;5.60;5.10;;;;;;;24.03;64.13;95384.19;6272012;22;20181;-81
2023/08/19 00:42:31;;;;;;;8.07;7.28;;;;;;;24.02;64.46;95379.97;6272217;22;20210;-81
2023/08/19 00:44:58;;;;;;;5.88;5.28;;;;;;;24.04;64.06;95362.88;6271547;22;20276;-82
2023/08/19 00:47:25;;;;;;;8.52;6.70;;;;;;;24.09;63.56;95347.06;6271388;22;20643;-81
2023/08/19 00:49:52;;;;;;;6.35;5.55;;;;;;;24.10;63.79;95347.84;6271890;22;20766;-82
2023/08/19 00:52:19;;;;;;;5.68;5.13;;;;;;;24.16;63.35;95351.25;6272673;22;20200;-82
2023/08/19 00:54:48;;;;;;;5.18;4.68;;;;;;;24.03;64.12;95361.31;6272637;22;20196;-81
2023/08/19 00:57:14;;;;;;;6.18;5.63;;;;;;;23.96;64.14;95375.78;6272730;22;20196;-82
2023/08/19 00:59:42;;;;;;;5.95;5.38;;;;;;;23.97;64.37;95372.88;6272125;22;20691;-82
2023/08/19 01:02:09;;;;;;;5.47;4.97;;;;;;;23.98;64.11;95377.09;6271567;22;20172;-82
2023/08/19 01:04:35;;;;;;;6.63;6.03;;;;;;;23.97;64.77;95391.28;6271729;22;20196;-82
2023/08/19 01:07:12;;;;;;;6.25;5.35;;;;;;;23.91;65.00;95402.84;6271377;22;20176;-82
2023/08/19 01:09:48;;;;;;;5.03;4.55;;;;;;;23.74;65.92;95424.16;6271594;22;20160;-81
2023/08/19 01:12:24;;;;;;;4.72;4.32;;;;;;;23.70;65.88;95420.47;6271830;22;20187;-81
2023/08/19 01:15:04;;;;;;;4.47;4.07;;;;;;;23.68;66.39;95429.69;6271118;22;20192;-82
2023/08/19 01:17:32;;;;;;;4.75;4.00;;;;;;;23.63;66.46;95445.47;6272022;22;20832;-82
2023/08/19 01:19:58;;;;;;;4.47;4.00;;;;;;;23.68;67.17;95446.25;6271761;22;20180;-82
2023/08/19 01:22:34;;;;;;;4.55;3.90;;;;;;;23.76;66.78;95423.91;6271133;22;20179;-82
2023/08/19 01:25:04;;;;;;;5.38;4.20;;;;;;;23.81;66.12;95408.13;6271946;22;20206;-81
2023/08/19 01:27:30;;;;;;;6.00;4.68;;;;;;;23.82;66.60;95401.03;6271996;22;20179;-82
2023/08/19 01:29:57;;;;;;;6.60;5.47;;;;;;;23.68;66.82;95417.31;6271908;22;20631;-81
2023/08/19 01:32:24;;;;;;;5.68;5.18;;;;;;;23.57;67.31;95417.59;6273582;22;20196;-81
2023/08/19 01:34:53;;;;;;;5.18;4.78;;;;;;;23.53;67.69;95432.28;6273940;22;20687;-81
2023/08/19 01:37:27;;;;;;;5.38;4.88;;;;;;;23.51;67.69;95429.91;6274662;22;20176;-82
2023/08/19 01:39:56;;;;;;;6.25;4.68;;;;;;;23.44;67.51;95426.75;6272821;22;20171;-82
2023/08/19 01:42:25;;;;;;;5.25;4.80;;;;;;;23.47;67.12;95422.81;6273800;22;20180;-82
2023/08/19 01:44:53;;;;;;;5.03;4.50;;;;;;;23.46;67.57;95426.50;6274001;22;20204;-82
2023/08/19 01:47:19;;;;;;;7.32;4.60;;;;;;;23.43;68.07;95435.69;6274152;22;20237;-81
2023/08/19 01:49:47;;;;;;;5.60;4.97;;;;;;;23.39;68.36;95453.81;6274036;22;20183;-82
2023/08/19 01:52:14;;;;;;;4.80;4.30;;;;;;;23.34;68.42;95461.66;6274273;22;20184;-81
2023/08/19 01:54:41;;;;;;;4.90;4.50;;;;;;;23.40;68.03;95449.34;6274887;22;20196;-82
2023/08/19 01:57:08;;;;;;;4.88;4.32;;;;;;;23.44;67.86;95439.91;6273917;22;20172;-81
2023/08/19 01:59:35;;;;;;;4.70;4.30;;;;;;;23.16;69.38;95475.28;6274109;22;20183;-81
2023/08/19 02:02:02;;;;;;;5.60;4.80;;;;;;;22.97;69.87;95498.59;6273084;22;20180;-81
2023/08/19 02:04:29;;;;;;;6.65;4.50;;;;;;;22.94;69.83;95488.59;6274289;22;20182;-81
2023/08/19 02:06:55;;;;;;;4.63;4.22;;;;;;;22.90;69.79;95482.25;6274295;22;20172;-82
2023/08/19 02:09:22;;;;;;;4.28;3.97;;;;;;;22.91;69.99;95491.72;6273250;22;20187;-81
2023/08/19 02:11:48;;;;;;;4.55;3.95;;;;;;;22.95;69.77;95499.88;6273120;22;20667;-81
2023/08/19 02:14:15;;;;;;;4.82;4.43;;;;;;;22.89;70.50;95499.09;6273620;22;20172;-81
2023/08/19 02:16:42;;;;;;;4.97;4.38;;;;;;;22.89;69.98;95504.34;6273209;22;20199;-81
2023/08/19 02:19:09;;;;;;;4.80;4.30;;;;;;;22.92;69.99;95506.44;6273512;22;20183;-81
2023/08/19 02:21:35;;;;;;;5.03;4.57;;;;;;;22.96;70.02;95499.63;6273522;22;20180;-82
2023/08/19 02:24:01;;;;;;;4.53;4.13;;;;;;;22.96;70.04;95498.84;6273654;22;20655;-82
2023/08/19 02:26:28;;;;;;;4.43;3.92;;;;;;;22.96;69.73;95511.97;6273284;22;20203;-82
2023/08/19 02:28:54;;;;;;;4.70;4.30;;;;;;;22.88;70.89;95523.78;6273622;22;20227;-82
2023/08/19 02:31:21;;;;;;;4.50;3.97;;;;;;;22.89;70.59;95530.59;6273969;22;20176;-82
2023/08/19 02:33:48;;;;;;;5.13;4.18;;;;;;;22.87;70.50;95526.66;6273529;22;20195;-82
2023/08/19 02:36:15;;;;;;;4.72;4.07;;;;;;;22.83;70.41;95528.97;6273592;22;20196;-82
2023/08/19 02:38:41;;;;;;;5.13;4.65;;;;;;;22.88;70.23;95531.66;6273628;22;20199;-82
2023/08/19 02:41:09;;;;;;;4.10;3.80;;;;;;;22.87;69.80;95516.16;6273737;22;20176;-82
2023/08/19 02:43:36;;;;;;;4.95;4.13;;;;;;;22.89;69.66;95504.34;6272313;22;20184;-82
2023/08/19 02:46:02;;;;;;;4.60;4.10;;;;;;;22.85;69.66;95508.53;6273177;22;20196;-82
2023/08/19 02:48:29;;;;;;;4.70;3.78;;;;;;;22.78;69.75;95515.81;6273131;22;20177;-82
2023/08/19 02:50:56;;;;;;;4.72;4.00;;;;;;;22.70;70.69;95527.59;6274114;22;20177;-81
2023/08/19 02:53:23;;;;;;;5.70;4.50;;;;;;;22.60;71.00;95527.50;6273211;22;20686;-82
2023/08/19 02:55:52;;;;;;;4.43;4.03;;;;;;;22.59;71.17;95531.16;6273400;22;20527;-81
2023/08/19 02:58:18;;;;;;;4.93;4.43;;;;;;;22.22;72.75;95560.03;6273652;22;20172;-81
2023/08/19 03:00:46;;;;;;;4.80;4.28;;;;;;;21.87;74.96;95609.50;6272835;22;20235;-82
2023/08/19 03:03:13;;;;;;;6.63;3.97;;;;;;;21.89;75.29;95615.28;6273707;22;20179;-81
2023/08/19 03:05:40;;;;;;;4.65;4.07;;;;;;;22.04;74.70;95602.34;6273519;22;20196;-82
2023/08/19 03:08:09;;;;;;;4.10;3.75;;;;;;;22.18;73.78;95594.84;6273117;22;20180;-82
2023/08/19 03:10:37;;;;;;;4.88;4.38;;;;;;;22.20;73.72;95590.94;6273650;22;20564;-81
2023/08/19 03:13:03;;;;;;;4.95;4.35;;;;;;;22.19;73.66;95586.75;6273497;22;20196;-81
2023/08/19 03:15:30;;;;;;;4.88;4.47;;;;;;;22.20;73.26;95577.03;6272580;22;20203;-81
2023/08/19 03:17:57;;;;;;;5.10;4.20;;;;;;;22.08;74.52;95606.06;6273568;22;20508;-82
2023/08/19 03:20:23;;;;;;;6.60;4.43;;;;;;;22.09;75.03;95615.50;6273613;22;20195;-81
2023/08/19 03:22:50;;;;;;;5.28;4.75;;;;;;;22.13;74.39;95603.47;6272911;22;20168;-81
2023/08/19 03:25:18;;;;;;;5.88;4.68;;;;;;;22.19;73.88;95601.69;6273061;22;20218;-81
2023/08/19 03:27:44;;;;;;;4.97;3.88;;;;;;;22.28;73.59;95581.84;6273287;22;20183;-82
2023/08/19 03:30:11;;;;;;;5.65;4.15;;;;;;;22.28;73.64;95584.47;6273181;22;20227;-81
2023/08/19 03:32:38;;;;;;;4.95;4.50;;;;;;;22.38;73.08;95581.91;6271783;22;20196;-82
2023/08/19 03:35:05;;;;;;;5.53;4.40;;;;;;;22.37;72.74;95570.63;6272908;22;20196;-81
2023/08/19 03:37:31;;;;;;;4.55;4.03;;;;;;;22.45;72.13;95563.34;6272797;22;20179;-80
2023/08/19 03:39:57;;;;;;;4.55;4.03;;;;;;;22.51;71.89;95547.41;6272637;22;20176;-81
2023/08/19 03:42:25;;;;;;;4.47;3.70;;;;;;;22.47;71.57;95543.69;6272891;22;20194;-81
2023/08/19 03:44:52;;;;;;;4.70;3.97;;;;;;;22.44;71.74;95548.66;6272314;22;20231;-81
2023/08/19 03:47:18;;;;;;;6.00;4.13;;;;;;;22.44;71.56;95546.81;6272301;22;20176;-80
2023/08/19 03:49:45;;;;;;;5.32;3.92;;;;;;;22.35;71.83;95556.97;6272195;22;20176;-80
2023/08/19 03:52:11;;;;;;;4.20;3.80;;;;;;;22.03;73.07;95585.81;6272283;22;20183;-80
2023/08/19 03:54:38;;;;;;;4.72;4.13;;;;;;;21.71;74.65;95624.25;6271386;22;20200;-81
2023/08/19 03:57:04;;;;;;;3.70;3.40;;;;;;;21.72;75.02;95636.34;6272488;22;20176;-79
2023/08/19 03:59:32;;;;;;;4.30;3.95;;;;;;;21.77;74.86;95632.94;6271736;22;20210;-80
2023/08/19 04:01:58;;;;;;;5.68;3.97;;;;;;;21.91;74.30;95614.00;6270428;22;20601;-81
2023/08/19 04:04:25;;;;;;;5.53;4.13;;;;;;;22.03;74.01;95606.78;6271369;22;20179;-80
2023/08/19 04:06:51;;;;;;;4.57;3.90;;;;;;;22.08;73.52;95607.91;6273634;22;20180;-81
2023/08/19 04:09:18;;;;;;;5.75;4.20;;;;;;;22.09;73.26;95612.91;6273356;22;20225;-80
2023/08/19 04:11:44;;;;;;;4.63;4.22;;;;;;;22.04;73.19;95605.75;6272800;22;20172;-81
2023/08/19 04:14:12;;;;;;;4.45;4.03;;;;;;;22.08;73.26;95606.06;6270557;22;20196;-81
2023/08/19 04:16:40;;;;;;;7.32;4.20;;;;;;;22.14;73.06;95609.50;6270378;22;20249;-80
2023/08/19 04:19:06;;;;;;;4.22;3.83;;;;;;;22.11;73.36;95604.78;6270690;22;20187;-81
2023/08/19 04:21:33;;;;;;;4.07;3.75;;;;;;;22.08;73.56;95610.50;6270691;22;20206;-81
2023/08/19 04:23:59;;;;;;;5.60;4.20;;;;;;;22.00;73.64;95617.78;6271830;22;20171;-81
2023/08/19 04:26:26;;;;;;;5.32;4.10;;;;;;;22.00;73.76;95622.22;6271408;22;20191;-81
2023/08/19 04:28:52;;;;;;;4.78;3.75;;;;;;;22.00;74.04;95627.47;6272319;22;20180;-82
2023/08/19 04:31:19;;;;;;;4.78;3.88;;;;;;;21.95;73.80;95622.94;6273188;22;20541;-82
2023/08/19 04:33:47;;;;;;;4.80;3.90;;;;;;;21.89;74.20;95633.63;6272729;22;20579;-81
2023/08/19 04:36:13;;;;;;;5.85;4.25;;;;;;;21.99;73.79;95623.22;6271887;22;20203;-81
2023/08/19 04:38:40;;;;;;;4.90;4.40;;;;;;;22.10;73.20;95622.34;6272441;22;20225;-81
2023/08/19 04:41:06;;;;;;;6.07;4.45;;;;;;;22.16;72.59;95605.59;6272628;22;20183;-81
2023/08/19 04:43:33;;;;;;;4.35;3.95;;;;;;;22.13;72.52;95606.09;6272802;22;20176;-82
2023/08/19 04:45:59;;;;;;;5.40;4.10;;;;;;;22.17;72.31;95611.63;6272250;22;20196;-81
2023/08/19 04:48:25;;;;;;;3.95;3.65;;;;;;;22.17;72.40;95615.06;6272894;22;20646;-81
2023/08/19 04:50:53;;;;;;;6.63;3.90;;;;;;;22.26;71.62;95599.66;6273116;22;20187;-81
2023/08/19 04:53:20;;;;;;;6.05;3.95;;;;;;;22.20;72.15;95608.53;6272397;22;20196;-81
2023/08/19 04:55:46;;;;;;;4.40;4.03;;;;;;;22.26;72.22;95624.06;6273140;22;20200;-82
2023/08/19 04:58:13;;;;;;;4.43;3.90;;;;;;;22.30;71.74;95611.25;6273477;22;20171;-82
2023/08/19 05:00:39;;;;;;;4.20;3.80;;;;;;;22.30;71.10;95587.66;6272377;22;20749;-82
2023/08/19 05:03:06;;;;;;;5.55;4.20;;;;;;;22.41;70.23;95560.44;6272522;22;20176;-82
2023/08/19 05:05:32;;;;;;;4.10;3.70;;;;;;;22.38;68.83;95532.06;6271272;22;20203;-81
2023/08/19 05:08:00;;;;;;;5.25;3.75;;;;;;;22.45;68.53;95516.13;6270882;22;20180;-82
2023/08/19 05:10:26;;;;;;;4.93;3.63;;;;;;;22.54;68.55;95517.22;6271688;22;20372;-81
2023/08/19 05:12:53;;;;;;;3.80;3.50;;;;;;;22.62;68.00;95501.81;6271245;22;20523;-81
2023/08/19 05:15:19;;;;;;;4.90;3.40;;;;;;;22.72;66.84;95488.72;6271515;22;20196;-81
2023/08/19 05:17:46;;;;;;;5.00;3.35;;;;;;;22.82;66.35;95479.34;6271507;22;20176;-81
2023/08/19 05:20:12;;;;;;;7.85;3.85;;;;;;;22.90;66.52;95469.13;6271420;22;20180;-81
2023/08/19 05:22:38;;;;;;;6.90;3.78;;;;;;;22.95;65.86;95439.50;6271436;22;20172;-81
2023/08/19 05:25:08;;;;;;;4.10;3.50;;;;;;;22.97;66.13;95464.44;6270155;22;20683;-81
2023/08/19 05:27:35;;;;;;;4.93;3.50;;;;;;;22.98;66.20;95463.41;6271611;22;20183;-81
2023/08/19 05:30:04;;;;;;;6.25;3.60;;;;;;;23.01;65.67;95447.13;6271756;22;20179;-82
2023/08/19 05:32:30;;;;;;;3.97;3.53;;;;;;;23.11;65.55;95456.88;6271657;22;20263;-81
2023/08/19 05:34:56;;;;;;;4.80;3.63;;;;;;;23.23;65.36;95451.41;6271620;22;20195;-82
2023/08/19 05:37:23;;;;;;;6.43;3.97;;;;;;;23.21;65.41;95445.63;6271357;22;20180;-81
2023/08/19 05:39:49;;;;;;;5.03;3.40;;;;;;;23.27;65.50;95449.84;6271737;22;20172;-81
2023/08/19 05:42:18;;;;;;;4.38;3.70;;;;;;;23.28;65.03;95443.53;6271112;22;20177;-82
2023/08/19 05:44:44;;;;;;;3.92;3.58;;;;;;;23.32;64.86;95440.13;6270475;22;20200;-81
2023/08/19 05:47:11;;;;;;;3.80;3.42;;;;;;;23.27;65.54;95457.72;6273233;22;20184;-81
2023/08/19 05:49:37;;;;;;;4.32;3.35;;;;;;;23.40;64.93;95444.09;6272384;22;20511;-81
2023/08/19 05:52:04;;;;;;;6.55;3.60;;;;;;;23.47;64.41;95420.97;6271219;22;20184;-81
2023/08/19 05:54:30;;;;;;;5.55;3.50;;;;;;;23.55;63.65;95403.91;6271560;22;20227;-82
2023/08/19 05:56:57;;;;;;;4.97;3.75;;;;;;;23.57;63.56;95407.88;6270613;22;20515;-81
2023/08/19 05:59:24;;;;;;;3.85;3.40;;;;;;;23.67;64.17;95420.22;6271104;22;20180;-81
2023/08/19 06:01:51;;;;;;;4.97;3.78;;;;;;;23.59;63.69;95394.47;6270380;22;20180;-81
2023/08/19 06:04:19;;;;;;;5.63;3.63;;;;;;;23.48;63.29;95396.25;6271122;22;20168;-81
2023/08/19 06:06:45;;;;;;;4.32;3.63;;;;;;;23.58;63.76;95412.06;6271957;22;20218;-81
2023/08/19 06:09:12;;;;;;;6.25;3.40;;;;;;;23.71;63.44;95410.75;6271383;22;20172;-81
2023/08/19 06:11:47;;;;;;;5.70;3.45;;;;;;;23.86;63.02;95412.63;6271454;22;20195;-81
2023/08/19 06:14:14;;;;;;;5.53;3.70;;;;;;;23.97;62.99;95404.44;6270174;22;20243;-81
2023/08/19 06:16:42;;;;;;;6.72;3.63;;;;;;;24.08;61.95;95369.16;6271397;22;20675;-82
2023/08/19 06:19:09;;;;;;;5.50;3.70;;;;;;;24.11;62.10;95360.75;6273442;22;20173;-81
2023/08/19 06:21:35;;;;;;;4.70;3.08;;;;;;;24.20;61.69;95354.94;6273225;22;20731;-81
2023/08/19 06:24:02;;;;;;;3.63;3.30;;;;;;;24.32;61.21;95358.09;6273031;22;20258;-81
2023/08/19 06:26:28;;;;;;;3.90;3.47;;;;;;;24.40;60.95;95341.75;6273233;22;20192;-81
2023/08/19 06:28:55;;;;;;;4.13;3.45;;;;;;;24.47;60.66;95318.53;6272845;22;20229;-81
2023/08/19 06:31:22;;;;;;;3.88;3.47;;;;;;;24.53;60.18;95322.75;6273202;22;20176;-82
2023/08/19 06:33:51;;;;;;;6.10;3.72;;;;;;;24.63;60.36;95314.03;6272664;22;20694;-82
2023/08/19 06:36:22;;;;;;;4.70;3.42;;;;;;;24.71;59.80;95290.53;6272454;22;20562;-82
2023/08/19 06:38:57;;;;;;;6.20;3.35;;;;;;;24.78;60.49;95327.09;6273593;22;20160;-81
2023/08/19 06:41:24;;;;;;;5.20;3.70;;;;;;;24.84;59.87;95310.19;6273439;22;20543;-81
2023/08/19 06:43:52;;;;;;;4.50;3.42;;;;;;;24.89;59.46;95306.75;6272166;22;20180;-82
2023/08/19 06:46:20;;;;;;;6.32;3.65;;;;;;;24.94;59.74;95291.72;6273041;22;20195;-81
2023/08/19 06:48:47;;;;;;;4.80;3.40;;;;;;;24.99;59.12;95290.91;6272866;22;20183;-82
2023/08/19 06:51:16;;;;;;;5.68;3.30;;;;;;;25.08;58.95;95287.41;6273114;22;20172;-81
2023/08/19 06:53:43;;;;;;;5.18;3.28;;;;;;;25.17;58.76;95287.63;6273134;22;20196;-81
2023/08/19 06:56:19;;;;;;;6.10;3.10;;;;;;;25.20;58.97;95279.16;6273593;22;20535;-82
2023/08/19 06:58:52;;;;;;;5.78;3.42;;;;;;;25.20;59.18;95297.63;6272738;22;20167;-81
2023/08/19 07:01:23;;;;;;;6.18;3.53;;;;;;;25.17;60.27;95350.09;6271350;22;20160;-82
2023/08/19 07:03:51;;;;;;;5.05;3.38;;;;;;;25.32;59.03;95299.88;6272726;22;20164;-81
2023/08/19 07:06:21;;;;;;;4.00;3.08;;;;;;;25.50;58.81;95293.16;6272557;22;20697;-81
2023/08/19 07:08:48;;;;;;;3.30;2.95;;;;;;;25.57;57.55;95256.69;6272582;22;20191;-82
2023/08/19 07:11:16;;;;;;;6.47;3.47;;;;;;;25.74;57.51;95222.81;6272511;22;20184;-82
2023/08/19 07:13:43;;;;;;;6.63;3.50;;;;;;;25.92;57.06;95223.91;6272515;22;20220;-81
2023/08/19 07:16:11;;;;;;;4.70;3.53;;;;;;;26.06;56.69;95208.97;6272141;22;20196;-82
2023/08/19 07:18:39;;;;;;;4.20;3.30;;;;;;;26.19;57.24;95225.94;6271995;22;20481;-82
2023/08/19 07:21:09;;;;;;;6.35;3.17;;;;;;;26.25;55.86;95177.31;6275659;22;20177;-82
2023/08/19 07:23:38;;;;;;;5.20;3.33;;;;;;;26.33;55.70;95174.88;6272312;22;20195;-82
2023/08/19 07:26:05;;;;;;;4.07;2.95;;;;;;;26.44;54.75;95130.59;6271853;22;20702;-82
2023/08/19 07:28:33;;;;;;;3.47;3.17;;;;;;;26.60;54.24;95107.38;6271329;22;20176;-82
2023/08/19 07:31:00;;;;;;;4.88;3.22;;;;;;;26.70;54.28;95117.78;6272289;22;20504;-82
2023/08/19 07:33:26;;;;;;;6.72;3.50;;;;;;;26.88;53.95;95087.91;6271721;22;20202;-82
2023/08/19 07:35:53;;;;;;;6.00;3.53;;;;;;;27.03;53.29;95066.50;6272028;22;20541;-82
2023/08/19 07:38:20;;;;;;;4.93;3.50;;;;;;;27.16;52.70;95068.38;6272347;22;20176;-82
2023/08/19 07:40:48;;;;;;;5.07;3.55;;;;;;;27.18;53.27;95079.44;6272145;22;20184;-82
2023/08/19 07:43:15;;;;;;;6.30;3.42;;;;;;;27.34;52.50;95027.03;6271392;22;20191;-82
2023/08/19 07:45:41;;;;;;;6.55;3.25;;;;;;;27.44;52.42;95032.13;6271154;22;20679;-82
2023/08/19 07:48:08;;;;;;;8.93;3.60;;;;;;;27.43;50.95;94959.16;6272297;22;20556;-82
2023/08/19 07:50:35;;;;;;;4.97;3.60;;;;;;;27.57;50.45;94938.00;6271839;22;20184;-82
2023/08/19 07:53:02;;;;;;;8.27;3.45;;;;;;;27.68;50.26;94951.78;6272915;22;20176;-82
2023/08/19 07:55:28;;;;;;;6.47;3.22;;;;;;;27.85;50.54;94962.50;6272182;22;20286;-82
2023/08/19 07:57:56;;;;;;;8.05;3.25;;;;;;;27.99;50.07;94963.22;6272061;22;20172;-82
2023/08/19 08:00:22;;;;;;;6.40;3.22;;;;;;;27.96;49.65;94905.59;6271234;22;20183;-82
2023/08/19 08:02:49;;;;;;;7.93;3.60;;;;;;;28.15;49.25;94918.59;6270723;22;20180;-82
2023/08/19 08:05:15;;;;;;;6.60;3.30;;;;;;;28.40;49.32;94910.03;6271787;22;20195;-82
2023/08/19 08:07:41;;;;;;;5.10;3.30;;;;;;;28.44;47.43;94781.22;6272721;22;20172;-82
2023/08/19 08:10:09;;;;;;;4.68;3.17;;;;;;;28.64;47.61;94824.13;6273154;22;20632;-82
2023/08/19 08:12:35;;;;;;;6.57;3.35;;;;;;;28.68;47.96;94831.13;6273023;22;20172;-82
2023/08/19 08:15:03;;;;;;;4.43;3.30;;;;;;;28.91;47.11;94810.59;6272913;22;20690;-82
2023/08/19 08:17:30;;;;;;;7.97;3.45;;;;;;;28.95;46.86;94790.34;6274218;22;20176;-82
2023/08/19 08:19:57;;;;;;;5.43;3.40;;;;;;;29.03;45.86;94747.16;6273634;22;20175;-82
2023/08/19 08:22:25;;;;;;;7.55;3.28;;;;;;;29.17;46.10;94736.38;6273463;22;20632;-81
2023/08/19 08:24:51;;;;;;;4.68;3.20;;;;;;;29.22;45.03;94677.88;6273673;22;20655;-80
2023/08/19 08:27:18;;;;;;;4.10;2.83;;;;;;;29.44;44.78;94685.63;6273879;22;20187;-81
2023/08/19 08:29:45;;;;;;;5.50;3.00;;;;;;;29.70;45.26;94727.22;6274077;22;20183;-81
2023/08/19 08:32:12;;;;;;;5.20;3.42;;;;;;;29.80;45.37;94703.00;6273521;22;20179;-80
2023/08/19 08:34:39;;;;;;;5.55;3.10;;;;;;;29.95;44.24;94680.44;6272486;22;20192;-82
2023/08/19 08:37:05;;;;;;;6.43;3.75;;;;;;;29.98;43.88;94651.41;6273609;22;20172;-81
2023/08/19 08:39:32;;;;;;;3.50;2.97;;;;;;;30.15;44.49;94667.22;6272125;22;20176;-81
2023/08/19 08:42:00;;;;;;;4.05;3.00;;;;;;;30.30;43.65;94655.25;6273757;22;20175;-82
2023/08/19 08:44:27;;;;;;;5.75;2.90;;;;;;;30.42;43.49;94625.28;6272412;22;20180;-82
2023/08/19 08:46:56;;;;;;;5.45;3.13;;;;;;;30.46;42.74;94594.31;6275099;22;20177;-82
2023/08/19 08:49:27;;;;;;;4.07;3.10;;;;;;;30.58;42.99;94601.63;6274774;22;20172;-82
2023/08/19 08:51:57;;;;;;;6.88;3.53;;;;;;;30.69;41.95;94529.09;6273374;22;20184;-83
2023/08/19 08:54:24;;;;;;;5.18;2.88;;;;;;;30.61;40.67;94462.75;6274350;22;20543;-81
2023/08/19 08:56:50;;;;;;;3.28;2.90;;;;;;;30.88;41.52;94528.59;6273318;22;20183;-82
2023/08/19 08:59:17;;;;;;;5.68;3.10;;;;;;;30.82;40.80;94466.09;6273546;22;20176;-81
2023/08/19 09:01:46;;;;;;;6.03;3.60;;;;;;;31.02;40.68;94481.16;6272926;22;20183;-80
2023/08/19 09:04:14;;;;;;;5.43;3.17;;;;;;;31.12;39.76;94424.16;6273610;22;20168;-82
2023/08/19 09:06:43;;;;;;;3.80;2.80;;;;;;;31.16;39.92;94412.50;6271285;22;20192;-82
2023/08/19 09:09:12;;;;;;;5.18;2.83;;;;;;;31.24;38.98;94366.38;6276637;22;20183;-82
2023/08/19 09:11:40;;;;;;;4.20;2.80;;;;;;;31.44;39.23;94374.53;6271487;22;20196;-80
2023/08/19 09:14:13;;;;;;;4.95;3.00;;;;;;;31.44;38.93;94385.94;6271260;22;20200;-81
2023/08/19 09:16:40;;;;;;;4.18;3.00;;;;;;;31.43;38.37;94333.84;6270967;22;20203;-80
2023/08/19 09:19:06;;;;;;;7.15;3.10;;;;;;;31.64;38.21;94370.91;6271860;22;20176;-81
2023/08/19 09:21:33;;;;;;;4.60;3.00;;;;;;;31.94;39.16;94413.97;6271427;22;20179;-81
2023/08/19 09:24:01;;;;;;;3.90;2.85;;;;;;;32.09;37.86;94348.53;6271932;22;20176;-82
2023/08/19 09:26:27;;;;;;;3.42;3.00;;;;;;;32.17;36.98;94307.59;6271535;22;20192;-80
2023/08/19 09:28:57;;;;;;;5.78;3.00;;;;;;;32.06;36.92;94299.38;6271073;22;20249;-82
2023/08/19 09:31:24;;;;;;;3.47;2.78;;;;;;;32.08;37.85;94341.66;6272110;22;20180;-81
2023/08/19 09:33:52;;;;;;;2.92;2.63;;;;;;;32.19;37.44;94319.47;6273467;22;20176;-82
2023/08/19 09:36:18;;;;;;;6.18;2.95;;;;;;;32.36;36.85;94282.97;6273380;22;20198;-82
2023/08/19 09:38:45;;;;;;;4.18;2.92;;;;;;;32.44;36.66;94296.13;6272985;22;20237;-80
2023/08/19 09:41:15;;;;;;;6.32;3.30;;;;;;;32.39;35.71;94243.06;6273228;22;20183;-82
2023/08/19 09:43:41;;;;;;;5.57;2.97;;;;;;;32.58;35.75;94219.13;6271869;22;20644;-82
2023/08/19 09:46:08;;;;;;;6.97;2.92;;;;;;;32.47;35.18;94196.81;6275781;22;20210;-82
2023/08/19 09:48:36;;;;;;;5.25;2.75;;;;;;;32.77;34.87;94218.41;6274945;22;20638;-82
2023/08/19 09:51:02;;;;;;;5.95;2.85;;;;;;;32.94;34.68;94169.97;6273379;22;20176;-81
2023/08/19 09:53:30;;;;;;;4.35;2.90;;;;;;;33.20;34.93;94217.34;6276440;22;20176;-82
2023/08/19 09:55:59;;;;;;;6.43;3.38;;;;;;;33.51;34.90;94199.59;6274813;22;20219;-82
2023/08/19 09:58:27;;;;;;;6.60;3.05;;;;;;;33.65;35.34;94234.56;6274114;22;20222;-82
2023/08/19 10:00:56;;;;;;;4.53;2.72;;;;;;;33.57;34.84;94209.63;6274268;22;20176;-81
2023/08/19 10:03:23;;;;;;;4.50;2.88;;;;;;;33.55;34.90;94195.88;6274420;22;20178;-82
2023/08/19 10:05:53;;;;;;;3.35;2.75;;;;;;;33.44;35.47;94234.19;6275853;22;20208;-83
2023/08/19 10:08:23;;;;;;;4.85;3.05;;;;;;;33.48;35.24;94227.81;6276611;22;20225;-82
2023/08/19 10:10:50;;;;;;;4.90;2.78;;;;;;;33.61;33.89;94164.31;6276083;22;20196;-81
2023/08/19 10:13:18;;;;;;;4.57;2.60;;;;;;;33.54;32.51;94052.09;6275895;22;20187;-80
2023/08/19 10:15:46;;;;;;;3.13;2.72;;;;;;;33.63;33.19;94087.31;6273457;22;20200;-82
2023/08/19 10:18:17;;;;;;;4.15;2.80;;;;;;;33.44;32.52;94058.81;6274573;22;20173;-80
2023/08/19 10:20:46;;;;;;;6.18;2.65;;;;;;;33.44;32.73;94108.75;6275385;22;20645;-81
2023/08/19 10:23:14;;;;;;;4.78;3.10;;;;;;;33.39;34.00;94141.84;6277439;22;20176;-82
2023/08/19 10:25:43;;;;;;;4.53;2.92;;;;;;;33.37;33.51;94154.00;6276532;22;20192;-82
2023/08/19 10:28:13;;;;;;;5.05;2.63;;;;;;;33.44;33.50;94162.91;6277187;22;20179;-82
2023/08/19 10:30:40;;;;;;;4.15;2.70;;;;;;;33.47;34.17;94180.88;6276544;22;20183;-82
2023/08/19 10:33:30;;;;;;;3.50;2.90;;;;;;;33.46;34.72;94199.91;6276602;22;20179;-82
2023/08/19 10:35:58;;;;;;;4.78;2.90;;;;;;;33.70;35.05;94230.81;6275757;22;20208;-83
2023/08/19 10:38:24;;;;;;;3.90;2.90;;;;;;;33.80;34.69;94227.59;6277045;22;20176;-81
2023/08/19 10:41:02;;;;;;;3.42;2.90;;;;;;;33.74;34.78;94240.44;6277214;22;20511;-81
2023/08/19 10:43:28;;;;;;;4.25;2.90;;;;;;;33.73;35.31;94276.28;6276710;22;20249;-82
2023/08/19 10:45:58;;;;;;;3.30;3.00;;;;;;;33.80;35.00;94262.31;6277033;22;20202;-81
2023/08/19 10:48:33;;;;;;;4.38;2.95;;;;;;;33.69;34.51;94207.91;6276521;22;20176;-81
2023/08/19 10:51:00;;;;;;;3.63;3.03;;;;;;;33.57;34.14;94188.28;6277131;22;20557;-82
2023/08/19 10:53:29;;;;;;;7.70;3.10;;;;;;;33.68;35.13;94230.41;6277076;22;20176;-82
2023/08/19 10:55:59;;;;;;;5.30;3.13;;;;;;;33.71;34.03;94190.41;6276390;22;20196;-81
2023/08/19 10:58:26;;;;;;;6.80;3.20;;;;;;;33.90;34.66;94219.75;6276307;22;20183;-82
2023/08/19 11:00:52;;;;;;;4.38;3.42;;;;;;;34.11;34.43;94207.84;6276157;22;20176;-81
2023/08/19 11:03:20;;;;;;;3.53;2.85;;;;;;;34.19;33.55;94164.06;6275440;22;20172;-82
2023/08/19 11:05:51;;;;;;;3.22;2.92;;;;;;;34.03;33.52;94158.91;6275197;22;20727;-82
2023/08/19 11:08:18;;;;;;;4.15;2.70;;;;;;;33.98;33.33;94135.16;6276500;22;20179;-82
2023/08/19 11:10:45;;;;;;;3.78;2.70;;;;;;;34.03;33.00;94131.41;6275585;22;20176;-82
2023/08/19 11:13:12;;;;;;;3.65;2.90;;;;;;;33.90;32.31;94072.84;6275820;22;20172;-81
2023/08/19 11:15:39;;;;;;;5.10;2.90;;;;;;;33.73;31.78;94019.16;6275939;22;20254;-82
2023/08/19 11:18:06;;;;;;;3.50;2.58;;;;;;;33.77;32.73;94087.53;6275748;22;20176;-82
2023/08/19 11:20:32;;;;;;;3.97;2.90;;;;;;;33.82;32.52;94089.16;6275930;22;20557;-82
2023/08/19 11:23:00;;;;;;;2.97;2.60;;;;;;;33.76;32.47;94093.22;6275372;22;20176;-82
2023/08/19 11:25:35;;;;;;;3.67;2.53;;;;;;;33.69;31.88;94053.81;6275283;22;20732;-81
2023/08/19 11:28:02;;;;;;;4.18;2.50;;;;;;;33.92;31.96;94048.44;6275273;22;20160;-82
2023/08/19 11:30:30;;;;;;;5.22;2.88;;;;;;;33.99;31.67;94048.53;6275984;22;20541;-82
2023/08/19 11:32:57;;;;;;;3.55;2.50;;;;;;;33.91;31.94;94028.22;6275517;22;20176;-81
2023/08/19 11:35:24;;;;;;;4.68;2.90;;;;;;;33.78;32.67;94078.41;6274304;22;20195;-81